Latest Weather Observations for Applethorpe
Issued at 6:23 pm EST Saturday 9 May 2026 (issued every 10 minutes, with the page automatically refreshed every 10 minutes)
| Station Details | ID: 041175 | Name: APPLETHORPE | Lat: -28.62 | Lon: 151.95 | Height: 871.6 m |
| Date/Time EST |
Temp °C |
App Temp °C |
Dew Point °C |
Rel Hum % |
Delta-T °C |
Wind | Press QNH hPa |
Press MSL hPa |
Rain since 9am mm |
|||||
|---|---|---|---|---|---|---|---|---|---|---|---|---|---|---|
| Dir | Spd km/h |
Gust km/h |
Spd kts |
Gust kts |
||||||||||
| 09/06:00pm | 11.6 | 9.5 | 4.1 | 60 | 3.5 | ENE | 4 | 7 | 2 | 4 | 1025.4 | 1024.1 | 0.0 | |
| 09/05:30pm | 13.0 | 10.9 | 3.9 | 54 | 4.3 | ENE | 4 | 6 | 2 | 3 | 1025.0 | 1023.7 | 0.0 | |
| 09/05:00pm | 14.9 | 12.4 | 3.7 | 47 | 5.4 | E | 6 | 13 | 3 | 7 | 1024.7 | 1023.4 | 0.0 | |
| 09/04:30pm | 16.5 | 13.4 | 3.6 | 42 | 6.3 | ENE | 9 | 17 | 5 | 9 | 1024.4 | 1023.2 | 0.0 | |
| 09/04:00pm | 18.2 | 15.5 | 2.9 | 36 | 7.4 | ENE | 6 | 11 | 3 | 6 | 1024.1 | 1022.8 | 0.0 | |
| 09/03:30pm | 18.8 | 15.9 | 2.6 | 34 | 7.8 | ENE | 7 | 15 | 4 | 8 | 1024.0 | 1022.7 | 0.0 | |
| 09/03:00pm | 19.2 | 16.5 | 2.6 | 33 | 8.0 | ENE | 6 | 9 | 3 | 5 | 1023.9 | 1022.6 | 0.0 | |
| 09/02:30pm | 18.1 | 14.8 | 2.4 | 35 | 7.5 | NNE | 9 | 17 | 5 | 9 | 1023.8 | 1022.5 | 0.0 | |
| 09/02:00pm | 19.3 | 16.7 | 3.1 | 34 | 7.9 | ENE | 6 | 15 | 3 | 8 | 1024.0 | 1022.7 | 0.0 | |
| 09/01:30pm | 18.8 | 16.1 | 2.6 | 34 | 7.8 | ENE | 6 | 11 | 3 | 6 | 1024.0 | 1022.7 | 0.0 | |
| 09/01:00pm | 17.9 | 15.1 | 3.0 | 37 | 7.2 | NE | 7 | 13 | 4 | 7 | 1024.1 | 1022.8 | 0.0 | |
| 09/12:30pm | 17.8 | 14.9 | 2.5 | 36 | 7.3 | ENE | 7 | 15 | 4 | 8 | 1024.4 | 1023.2 | 0.0 | |
| 09/12:00pm | 17.2 | 14.4 | 3.1 | 39 | 6.8 | E | 7 | 15 | 4 | 8 | 1024.9 | 1023.6 | 0.0 | |
| 09/11:30am | 17.4 | 14.1 | 2.6 | 37 | 7.1 | ENE | 9 | 15 | 5 | 8 | 1025.0 | 1023.7 | 0.0 | |
| 09/11:00am | 17.1 | 13.9 | 3.1 | 39 | 6.7 | E | 9 | 20 | 5 | 11 | 1025.2 | 1023.9 | 0.0 | |
| 09/10:30am | 16.0 | 12.4 | 2.8 | 41 | 6.3 | E | 11 | 17 | 6 | 9 | 1025.2 | 1023.9 | 0.0 | |
| 09/10:00am | 15.7 | 12.5 | 2.8 | 42 | 6.1 | ENE | 9 | 19 | 5 | 10 | 1025.3 | 1024.0 | 0.0 | |
| 09/09:30am | 15.0 | 11.8 | 3.2 | 45 | 5.6 | E | 9 | 17 | 5 | 9 | 1025.3 | 1024.0 | 0.0 | |
| 09/09:00am | 13.7 | 10.5 | 3.2 | 49 | 4.9 | E | 9 | 19 | 5 | 10 | 1025.0 | 1023.7 | 0.0 | |
| 09/08:30am | 11.9 | 8.7 | 3.2 | 55 | 4.0 | E | 9 | 22 | 5 | 12 | 1024.8 | 1023.5 | 0.0 | |
| 09/08:00am | 8.4 | 7.0 | 5.3 | 81 | 1.5 | ENE | 2 | 4 | 1 | 2 | 1024.4 | 1023.2 | 0.0 | |
| 09/07:30am | 4.1 | 2.3 | 3.7 | 97 | 0.2 | N | 2 | 4 | 1 | 2 | 1024.1 | 1022.8 | 0.0 | |
| 09/07:00am | 0.6 | -1.8 | -0.1 | 95 | 0.3 | N | 2 | 2 | 1 | 1 | 1023.7 | 1022.4 | 0.0 | |
| 09/06:30am | 0.3 | -1.7 | -0.4 | 95 | 0.3 | CALM | 0 | 0 | 0 | 0 | 1023.4 | 1022.0 | 0.0 | |
| 09/06:00am | -0.3 | -2.4 | -1.1 | 94 | 0.3 | CALM | 0 | 0 | 0 | 0 | 1023.1 | 1021.8 | 0.0 | |
| 09/05:30am | -0.1 | -2.2 | -0.9 | 94 | 0.3 | CALM | 0 | 0 | 0 | 0 | 1022.7 | 1021.4 | 0.0 | |
| 09/05:00am | 0.1 | -2.3 | -0.6 | 95 | 0.3 | NE | 2 | 2 | 1 | 1 | 1022.5 | 1021.2 | 0.0 | |
| 09/04:30am | 0.0 | -2.5 | -0.8 | 94 | 0.3 | NE | 2 | 2 | 1 | 1 | 1022.4 | 1021.0 | 0.0 | |
| 09/04:00am | 0.3 | -2.2 | -0.7 | 93 | 0.4 | NE | 2 | 4 | 1 | 2 | 1022.4 | 1021.0 | 0.0 | |
| 09/03:30am | 0.6 | -1.5 | -0.5 | 92 | 0.4 | CALM | 0 | 0 | 0 | 0 | 1022.3 | 1020.9 | 0.0 | |
| 09/03:00am | 0.8 | -1.2 | -0.2 | 93 | 0.4 | CALM | 0 | 0 | 0 | 0 | 1022.2 | 1020.8 | 0.0 | |
| 09/02:30am | 1.1 | -0.9 | -0.1 | 92 | 0.5 | CALM | 0 | 4 | 0 | 2 | 1022.2 | 1020.8 | 0.0 | |
| 09/02:00am | 1.3 | -0.7 | 0.1 | 92 | 0.5 | CALM | 0 | 0 | 0 | 0 | 1022.3 | 1020.9 | 0.0 | |
| 09/01:30am | 1.6 | -0.3 | 0.3 | 91 | 0.5 | CALM | 0 | 4 | 0 | 2 | 1022.4 | 1021.0 | 0.0 | |
| 09/01:00am | 2.1 | 0.2 | 0.6 | 90 | 0.6 | CALM | 0 | 4 | 0 | 2 | 1022.4 | 1021.0 | 0.0 | |
| 09/12:30am | 2.2 | 0.3 | 0.4 | 88 | 0.7 | CALM | 0 | 4 | 0 | 2 | 1022.5 | 1021.2 | 0.0 | |
| 09/12:00am | 2.7 | 0.4 | 0.4 | 85 | 0.9 | NW | 2 | 4 | 1 | 2 | 1022.5 | 1021.2 | 0.0 | |
| Date/Time EST |
Temp °C |
App Temp °C |
Dew Point °C |
Rel Hum % |
Delta-T °C |
Wind | Press QNH hPa |
Press MSL hPa |
Rain since 9am mm |
|||||
|---|---|---|---|---|---|---|---|---|---|---|---|---|---|---|
| Dir | Spd km/h |
Gust km/h |
Spd kts |
Gust kts |
||||||||||
| 08/11:30pm | 3.9 | 1.9 | 0.2 | 77 | 1.5 | CALM | 0 | 0 | 0 | 0 | 1022.5 | 1021.2 | 0.0 | |
| 08/11:00pm | 4.5 | 1.8 | 0.3 | 74 | 1.7 | SSW | 4 | 7 | 2 | 4 | 1022.5 | 1021.2 | 0.0 | |
| 08/10:30pm | 5.9 | 4.0 | 0.5 | 68 | 2.2 | CALM | 0 | 2 | 0 | 1 | 1022.5 | 1021.2 | 0.0 | |
| 08/10:00pm | 7.3 | 3.8 | 1.4 | 66 | 2.5 | WSW | 9 | 11 | 5 | 6 | 1022.3 | 1020.9 | 0.0 | |
| 08/09:30pm | 6.3 | 3.6 | 0.4 | 66 | 2.4 | WSW | 4 | 6 | 2 | 3 | 1022.5 | 1021.2 | 0.0 | |
| 08/09:00pm | 8.7 | 6.0 | 0.4 | 56 | 3.5 | SW | 4 | 9 | 2 | 5 | 1022.5 | 1021.2 | 0.0 | |
| 08/08:30pm | 9.3 | 6.3 | 0.5 | 54 | 3.8 | WSW | 6 | 9 | 3 | 5 | 1022.4 | 1021.0 | 0.0 | |
| 08/08:00pm | 10.4 | 7.1 | 0.4 | 50 | 4.3 | WSW | 7 | 13 | 4 | 7 | 1021.8 | 1020.5 | 0.0 | |
| 08/07:30pm | 11.2 | 7.2 | 0.6 | 48 | 4.6 | WSW | 11 | 17 | 6 | 9 | 1021.5 | 1020.2 | 0.0 | |
| 08/07:00pm | 11.4 | 7.8 | 0.5 | 47 | 4.7 | WSW | 9 | 19 | 5 | 10 | 1021.3 | 1019.9 | 0.0 | |
| 08/06:30pm | 12.0 | 8.4 | 0.5 | 45 | 5.0 | WSW | 9 | 17 | 5 | 9 | 1021.0 | 1019.6 | 0.0 | |
| 08/06:00pm | 12.8 | 8.8 | 0.2 | 42 | 5.5 | SW | 11 | 19 | 6 | 10 | 1020.5 | 1019.2 | 0.0 | |
| 08/05:30pm | 13.4 | 8.6 | 0.1 | 40 | 5.8 | SW | 15 | 24 | 8 | 13 | 1020.2 | 1018.8 | 0.0 | |
| 08/05:00pm | 14.3 | 9.1 | -0.2 | 37 | 6.4 | WSW | 17 | 30 | 9 | 16 | 1019.8 | 1018.4 | 0.0 | |
| 08/04:30pm | 15.1 | 10.2 | -0.6 | 34 | 6.9 | WSW | 15 | 30 | 8 | 16 | 1019.5 | 1018.2 | 0.0 | |
| 08/04:00pm | 15.7 | 10.4 | -0.5 | 33 | 7.2 | WSW | 17 | 26 | 9 | 14 | 1019.3 | 1017.9 | 0.0 | |
| 08/03:30pm | 16.6 | 11.8 | -0.1 | 32 | 7.5 | WSW | 15 | 22 | 8 | 12 | 1019.4 | 1018.1 | 0.0 | |
| 08/03:00pm | 17.1 | 11.9 | -0.1 | 31 | 7.7 | WSW | 17 | 26 | 9 | 14 | 1019.4 | 1018.1 | 0.0 | |
| 08/02:30pm | 17.4 | 12.6 | 0.1 | 31 | 7.9 | WSW | 15 | 22 | 8 | 12 | 1019.5 | 1018.2 | 0.0 | |
| 08/02:00pm | 17.4 | 12.9 | -0.3 | 30 | 8.0 | WSW | 13 | 20 | 7 | 11 | 1019.4 | 1018.1 | 0.0 | |
| 08/01:30pm | 17.6 | 12.4 | -0.2 | 30 | 8.1 | SW | 17 | 30 | 9 | 16 | 1019.5 | 1018.2 | 0.0 | |
| 08/01:00pm | 16.9 | 12.7 | -0.8 | 30 | 7.8 | WSW | 11 | 19 | 6 | 10 | 1020.0 | 1018.6 | 0.0 | |
| 08/12:30pm | 15.9 | 11.3 | -0.8 | 32 | 7.4 | WSW | 13 | 24 | 7 | 13 | 1020.5 | 1019.2 | 0.0 | |
| 08/12:00pm | 15.4 | 11.5 | -1.2 | 32 | 7.2 | SW | 9 | 13 | 5 | 7 | 1021.0 | 1019.6 | 0.0 | |
| 08/11:30am | 15.1 | 11.1 | -2.3 | 30 | 7.4 | WSW | 9 | 19 | 5 | 10 | 1021.1 | 1019.7 | 0.0 | |
| 08/11:00am | 14.7 | 10.3 | -2.7 | 30 | 7.3 | SW | 11 | 19 | 6 | 10 | 1021.4 | 1020.0 | 0.0 | |
| 08/10:30am | 13.0 | 8.4 | -3.7 | 31 | 6.7 | SW | 11 | 15 | 6 | 8 | 1021.8 | 1020.5 | 0.0 | |
| 08/10:00am | 11.4 | 7.6 | -3.9 | 34 | 6.0 | SW | 7 | 13 | 4 | 7 | 1021.8 | 1020.5 | 0.0 | |
| 08/09:30am | 9.3 | 5.1 | -3.6 | 40 | 5.0 | SSW | 9 | 17 | 5 | 9 | 1021.8 | 1020.5 | 0.0 | |
| 08/09:00am | 7.5 | 3.4 | -2.8 | 48 | 4.0 | SW | 9 | 13 | 5 | 7 | 1021.8 | 1020.5 | 0.0 | |
| 08/08:30am | 5.8 | 2.1 | -2.8 | 54 | 3.3 | SSW | 7 | 11 | 4 | 6 | 1021.9 | 1020.6 | 0.0 | |
| 08/08:00am | 4.4 | 0.4 | -2.4 | 61 | 2.6 | SW | 9 | 19 | 5 | 10 | 1021.8 | 1020.5 | 0.0 | |
| 08/07:30am | 3.2 | -0.9 | -3.1 | 63 | 2.3 | SW | 9 | 15 | 5 | 8 | 1021.5 | 1020.2 | 0.0 | |
| 08/07:00am | 1.8 | -2.0 | -3.5 | 68 | 2.0 | SW | 7 | 9 | 4 | 5 | 1021.4 | 1020.0 | 0.0 | |
| 08/06:30am | 0.6 | -3.2 | -3.5 | 74 | 1.5 | WSW | 7 | 9 | 4 | 5 | 1021.4 | 1020.0 | 0.0 | |
| 08/06:00am | 0.2 | -3.0 | -3.5 | 76 | 1.3 | WSW | 4 | 6 | 2 | 3 | 1021.2 | 1019.8 | 0.0 | |
| 08/05:30am | 1.1 | -2.7 | -3.6 | 71 | 1.7 | SW | 7 | 9 | 4 | 5 | 1021.1 | 1019.7 | 0.0 | |
| 08/05:00am | 1.1 | -1.7 | -3.6 | 71 | 1.7 | SW | 2 | 6 | 1 | 3 | 1021.0 | 1019.6 | 0.0 | |
| 08/04:30am | 1.8 | -1.9 | -4.1 | 65 | 2.2 | SSW | 6 | 9 | 3 | 5 | 1021.0 | 1019.6 | 0.0 | |
| 08/04:00am | 2.5 | -0.8 | -4.2 | 61 | 2.3 | SSW | 4 | 6 | 2 | 3 | 1021.0 | 1019.6 | 0.0 | |
| 08/03:30am | 3.6 | -0.6 | -4.1 | 57 | 2.8 | SW | 9 | 17 | 5 | 9 | 1020.7 | 1019.4 | 0.0 | |
| 08/03:00am | 4.4 | -0.3 | -5.1 | 50 | 3.3 | SSW | 11 | 22 | 6 | 12 | 1020.4 | 1019.1 | 0.0 | |
| 08/02:30am | 3.6 | -0.2 | -3.9 | 58 | 2.7 | SW | 7 | 15 | 4 | 8 | 1020.4 | 1019.1 | 0.0 | |
| 08/02:00am | 3.9 | 0.2 | -2.7 | 62 | 2.4 | SSW | 7 | 11 | 4 | 6 | 1020.3 | 1018.9 | 0.0 | |
| 08/01:30am | 4.7 | 0.8 | -1.5 | 64 | 2.4 | SSW | 9 | 17 | 5 | 9 | 1020.1 | 1018.7 | 0.0 | |
| 08/01:00am | 4.5 | 1.1 | -0.5 | 70 | 2.0 | SW | 7 | 13 | 4 | 7 | 1020.3 | 1018.9 | 0.0 | |
| 08/12:30am | 5.4 | 2.2 | -0.2 | 67 | 2.3 | SW | 6 | 9 | 3 | 5 | 1020.4 | 1019.1 | 0.0 | |
| 08/12:00am | 5.4 | 1.8 | 0.8 | 72 | 1.9 | SW | 9 | 15 | 5 | 8 | 1020.0 | 1018.6 | 0.0 | |
| Date/Time EST |
Temp °C |
App Temp °C |
Dew Point °C |
Rel Hum % |
Delta-T °C |
Wind | Press QNH hPa |
Press MSL hPa |
Rain since 9am mm |
|||||
|---|---|---|---|---|---|---|---|---|---|---|---|---|---|---|
| Dir | Spd km/h |
Gust km/h |
Spd kts |
Gust kts |
||||||||||
| 07/11:30pm | 6.1 | 2.9 | 0.9 | 69 | 2.2 | SW | 7 | 13 | 4 | 7 | 1020.3 | 1018.9 | 0.0 | |
| 07/11:00pm | 6.9 | 3.4 | 1.4 | 68 | 2.3 | SW | 9 | 20 | 5 | 11 | 1020.3 | 1018.9 | 0.0 | |
| 07/10:30pm | 7.3 | 4.0 | 2.2 | 70 | 2.2 | SW | 9 | 15 | 5 | 8 | 1020.2 | 1018.8 | 0.0 | |
| 07/10:00pm | 7.7 | 3.3 | 2.8 | 71 | 2.2 | WSW | 15 | 24 | 8 | 13 | 1020.0 | 1018.6 | 0.0 | |
| 07/09:30pm | 8.2 | 3.9 | 3.3 | 71 | 2.2 | WSW | 15 | 32 | 8 | 17 | 1020.3 | 1018.9 | 0.0 | |
| 07/09:00pm | 8.9 | 3.4 | 4.1 | 72 | 2.2 | WSW | 22 | 43 | 12 | 23 | 1019.5 | 1018.2 | 0.0 | |
| 07/08:30pm | 9.7 | 4.7 | 4.5 | 70 | 2.4 | SW | 20 | 33 | 11 | 18 | 1019.2 | 1017.8 | 0.0 | |
| 07/08:00pm | 10.5 | 4.3 | 4.4 | 66 | 2.9 | WSW | 26 | 43 | 14 | 23 | 1018.7 | 1017.3 | 0.0 | |
| 07/07:30pm | 10.9 | 5.0 | 4.1 | 63 | 3.2 | WSW | 24 | 41 | 13 | 22 | 1018.6 | 1017.2 | 0.0 | |
| 07/07:00pm | 11.5 | 5.5 | 3.5 | 58 | 3.7 | W | 24 | 39 | 13 | 21 | 1018.3 | 1016.9 | 0.0 | |
| 07/06:30pm | 11.9 | 6.6 | 3.2 | 55 | 4.0 | W | 20 | 35 | 11 | 19 | 1018.2 | 1016.8 | 0.0 | |
| 07/06:00pm | 12.2 | 7.4 | 2.6 | 52 | 4.4 | WSW | 17 | 24 | 9 | 13 | 1018.0 | 1016.6 | 0.0 | |
| 07/05:30pm | 13.0 | 7.6 | 1.4 | 45 | 5.2 | WSW | 19 | 35 | 10 | 19 | 1017.9 | 1016.5 | 0.0 | |
| 07/05:00pm | 14.0 | 7.7 | 1.3 | 42 | 5.7 | WSW | 24 | 37 | 13 | 20 | 1017.6 | 1016.2 | 0.0 | |
| 07/04:30pm | 14.9 | 8.8 | 0.7 | 38 | 6.4 | WSW | 22 | 39 | 12 | 21 | 1017.4 | 1015.9 | 0.0 | |
| 07/04:00pm | 15.6 | 9.1 | 0.6 | 36 | 6.8 | WSW | 24 | 41 | 13 | 22 | 1017.4 | 1015.9 | 0.0 | |
| 07/03:30pm | 16.2 | 9.8 | 1.1 | 36 | 6.9 | W | 24 | 41 | 13 | 22 | 1017.3 | 1015.8 | 0.0 | |
| 07/03:00pm | 16.9 | 10.4 | 0.5 | 33 | 7.5 | W | 24 | 35 | 13 | 19 | 1017.4 | 1015.9 | 0.0 | |
| 07/02:30pm | 17.6 | 12.1 | 2.0 | 35 | 7.4 | WSW | 20 | 37 | 11 | 20 | 1017.5 | 1016.1 | 0.0 | |
| 07/02:00pm | 18.0 | 12.8 | 2.3 | 35 | 7.5 | W | 19 | 33 | 10 | 18 | 1017.4 | 1015.9 | 0.0 | |
| 07/01:30pm | 17.4 | 11.8 | 1.4 | 34 | 7.5 | W | 20 | 37 | 11 | 20 | 1017.6 | 1016.2 | 0.0 | |
| 07/01:00pm | 17.7 | 12.4 | 1.7 | 34 | 7.5 | W | 19 | 37 | 10 | 20 | 1017.7 | 1016.3 | 0.0 | |
| 07/12:30pm | 17.8 | 12.7 | 0.9 | 32 | 7.8 | W | 17 | 30 | 9 | 16 | 1018.0 | 1016.6 | 0.0 | |
| 07/12:00pm | 17.2 | 12.1 | 2.8 | 38 | 6.9 | W | 19 | 33 | 10 | 18 | 1018.5 | 1017.1 | 0.0 | |
| 07/11:30am | 17.4 | 13.5 | 5.4 | 45 | 6.1 | W | 15 | 28 | 8 | 15 | 1018.7 | 1017.3 | 0.0 | |
| 07/11:00am | 16.6 | 12.9 | 6.1 | 50 | 5.3 | W | 15 | 26 | 8 | 14 | 1019.1 | 1017.7 | 0.0 | |
| 07/10:30am | 16.0 | 12.1 | 5.3 | 49 | 5.3 | WSW | 15 | 24 | 8 | 13 | 1019.4 | 1018.1 | 0.0 | |
| 07/10:00am | 15.2 | 11.2 | 6.5 | 56 | 4.4 | WSW | 17 | 32 | 9 | 17 | 1019.5 | 1018.2 | 0.0 | |
| 07/09:30am | 14.4 | 10.4 | 6.5 | 59 | 4.0 | WSW | 17 | 24 | 9 | 13 | 1019.8 | 1018.4 | 0.0 | |
| 07/09:00am | 13.5 | 10.2 | 6.6 | 63 | 3.5 | WSW | 13 | 24 | 7 | 13 | 1019.9 | 1018.5 | 8.0 | |
| 07/08:30am | 12.4 | 10.8 | 8.7 | 78 | 1.9 | SW | 7 | 15 | 4 | 8 | 1020.0 | 1018.6 | 8.0 | |
| 07/08:00am | 11.1 | 10.5 | 10.5 | 96 | 0.3 | SW | 4 | 7 | 2 | 4 | 1019.9 | 1018.5 | 8.0 | |
| 07/07:30am | 10.5 | 10.6 | 10.0 | 97 | 0.3 | CALM | 0 | 0 | 0 | 0 | 1019.5 | 1018.2 | 8.0 | |
| 07/07:00am | 9.7 | 9.5 | 9.1 | 96 | 0.3 | CALM | 0 | 0 | 0 | 0 | 1019.4 | 1018.1 | 8.0 | |
| 07/06:30am | 8.6 | 8.1 | 7.8 | 95 | 0.4 | CALM | 0 | 0 | 0 | 0 | 1019.1 | 1017.7 | 8.0 | |
| 07/06:00am | 9.1 | 8.7 | 8.3 | 95 | 0.4 | CALM | 0 | 0 | 0 | 0 | 1018.8 | 1017.4 | 8.0 | |
| 07/05:30am | 9.7 | 9.4 | 8.8 | 94 | 0.5 | CALM | 0 | 0 | 0 | 0 | 1018.6 | 1017.2 | 8.0 | |
| 07/05:00am | 10.6 | 10.2 | 9.7 | 94 | 0.5 | WSW | 2 | 6 | 1 | 3 | 1018.6 | 1017.2 | 8.0 | |
| 07/04:30am | 11.6 | 11.8 | 10.7 | 94 | 0.5 | CALM | 0 | 4 | 0 | 2 | 1018.3 | 1016.9 | 8.0 | |
| 07/04:00am | 12.7 | 12.9 | 11.9 | 95 | 0.4 | WNW | 2 | 7 | 1 | 4 | 1018.5 | 1017.1 | 8.0 | |
| 07/03:30am | 13.3 | 13.0 | 12.7 | 96 | 0.3 | W | 6 | 9 | 3 | 5 | 1018.6 | 1017.2 | 8.0 | |
| 07/03:00am | 13.8 | 14.0 | 13.2 | 96 | 0.3 | NW | 4 | 7 | 2 | 4 | 1018.7 | 1017.3 | 8.0 | |
| 07/02:30am | 14.1 | 14.8 | 13.5 | 96 | 0.3 | NNW | 2 | 6 | 1 | 3 | 1019.0 | 1017.6 | 8.0 | |
| 07/02:00am | 13.3 | 14.2 | 12.8 | 97 | 0.3 | CALM | 0 | 0 | 0 | 0 | 1019.2 | 1017.8 | 8.0 | |
| 07/01:30am | 12.5 | 13.1 | 11.9 | 96 | 0.3 | CALM | 0 | 0 | 0 | 0 | 1019.2 | 1017.8 | 8.0 | |
| 07/01:00am | 12.9 | 13.6 | 12.3 | 96 | 0.3 | CALM | 0 | 0 | 0 | 0 | 1019.5 | 1018.2 | 8.0 | |
| 07/12:30am | 12.1 | 12.6 | 11.5 | 96 | 0.3 | CALM | 0 | 0 | 0 | 0 | 1019.7 | 1018.3 | 8.0 | |
| 07/12:00am | 12.2 | 12.7 | 11.6 | 96 | 0.3 | CALM | 0 | 0 | 0 | 0 | 1019.7 | 1018.3 | 8.0 | |
| Date/Time EST |
Temp °C |
App Temp °C |
Dew Point °C |
Rel Hum % |
Delta-T °C |
Wind | Press QNH hPa |
Press MSL hPa |
Rain since 9am mm |
||||
|---|---|---|---|---|---|---|---|---|---|---|---|---|---|
| Dir | Spd km/h |
Gust km/h |
Spd kts |
Gust kts |
|||||||||
| 06/11:30pm | 12.9 | 13.2 | 12.3 | 96 | 0.3 | NNE | 2 | 4 | 1 | 2 | 1019.9 | 1018.5 | 8.0 |
| 06/11:00pm | 13.2 | 13.6 | 12.6 | 96 | 0.3 | NNE | 2 | 4 | 1 | 2 | 1020.1 | 1018.7 | 8.0 |
| 06/10:30pm | 13.2 | 13.6 | 12.6 | 96 | 0.3 | NE | 2 | 4 | 1 | 2 | 1020.4 | 1019.1 | 8.0 |
| 06/10:00pm | 13.3 | 13.8 | 12.7 | 96 | 0.3 | N | 2 | 4 | 1 | 2 | 1020.4 | 1019.1 | 8.0 |
| 06/09:30pm | 13.7 | 13.9 | 12.9 | 95 | 0.5 | NE | 4 | 6 | 2 | 3 | 1020.6 | 1019.3 | 8.0 |
| 06/09:00pm | 13.8 | 14.7 | 13.0 | 95 | 0.5 | CALM | 0 | 2 | 0 | 1 | 1020.6 | 1019.3 | 8.0 |
| 06/08:30pm | 14.1 | 14.4 | 13.5 | 96 | 0.3 | NE | 4 | 6 | 2 | 3 | 1020.7 | 1019.4 | 8.0 |
| 06/08:00pm | 14.2 | 14.2 | 13.6 | 96 | 0.3 | NE | 6 | 9 | 3 | 5 | 1020.7 | 1019.4 | 7.8 |
| 06/07:30pm | 14.1 | 14.4 | 13.3 | 95 | 0.5 | ENE | 4 | 6 | 2 | 3 | 1020.5 | 1019.2 | 7.8 |
| 06/07:00pm | 14.3 | 15.3 | 13.3 | 94 | 0.6 | CALM | 0 | 2 | 0 | 1 | 1020.2 | 1018.8 | 7.8 |
| 06/06:30pm | 14.7 | 15.1 | 13.7 | 94 | 0.6 | SE | 4 | 7 | 2 | 4 | 1020.0 | 1018.6 | 7.8 |
Other formats
Comma delimited format used in spreadsheet applications
http://www.bom.gov.au/fwo/IDN60801/IDN60801.94553.axf
JavaScript Object Notation format (JSON) in row-major order
http://www.bom.gov.au/fwo/IDN60801/IDN60801.94553.json
Data quality
Most of these data are generated automatically and are frequently updated. Quality checks on data are not normally performed. It is possible for incorrect values to appear. Refer to information at About Latest Weather Observations and please check the disclaimer before using these data.
